sensor_id;sensor_type;location;lat;lon;timestamp;pressure;altitude;pressure_sealevel;temperature;humidity
31771;BME280;18343;50.152;8.182;2023-04-27T00:00:50;97604.47;;;5.91;60.88
31771;BME280;18343;50.152;8.182;2023-04-27T00:03:36;97609.66;;;5.93;61.01
31771;BME280;18343;50.152;8.182;2023-04-27T00:06:21;97606.00;;;5.94;61.07
31771;BME280;18343;50.152;8.182;2023-04-27T00:09:05;97598.97;;;5.93;61.39
31771;BME280;18343;50.152;8.182;2023-04-27T00:11:50;97603.47;;;5.92;61.55
31771;BME280;18343;50.152;8.182;2023-04-27T00:14:35;97598.31;;;5.91;61.61
31771;BME280;18343;50.152;8.182;2023-04-27T00:17:19;97600.97;;;5.91;61.80
31771;BME280;18343;50.152;8.182;2023-04-27T00:20:07;97596.63;;;5.90;61.60
31771;BME280;18343;50.152;8.182;2023-04-27T00:22:52;97598.75;;;5.86;61.81
31771;BME280;18343;50.152;8.182;2023-04-27T00:25:37;97595.69;;;5.81;62.10
31771;BME280;18343;50.152;8.182;2023-04-27T00:28:22;97601.19;;;5.79;62.05
31771;BME280;18343;50.152;8.182;2023-04-27T00:31:07;97605.19;;;5.75;62.11
31771;BME280;18343;50.152;8.182;2023-04-27T00:33:51;97604.34;;;5.75;62.55
31771;BME280;18343;50.152;8.182;2023-04-27T00:36:37;97604.00;;;5.70;62.56
31771;BME280;18343;50.152;8.182;2023-04-27T00:39:22;97596.31;;;5.67;62.72
31771;BME280;18343;50.152;8.182;2023-04-27T00:42:06;97601.97;;;5.64;62.92
31771;BME280;18343;50.152;8.182;2023-04-27T00:44:50;97598.09;;;5.58;62.80
31771;BME280;18343;50.152;8.182;2023-04-27T00:47:35;97596.03;;;5.52;62.77
31771;BME280;18343;50.152;8.182;2023-04-27T00:50:27;97596.34;;;5.49;63.23
31771;BME280;18343;50.152;8.182;2023-04-27T00:53:13;97594.69;;;5.48;63.54
31771;BME280;18343;50.152;8.182;2023-04-27T00:55:58;97597.19;;;5.50;63.95
31771;BME280;18343;50.152;8.182;2023-04-27T00:58:43;97597.69;;;5.45;63.91
31771;BME280;18343;50.152;8.182;2023-04-27T01:01:28;97601.50;;;5.42;64.21
31771;BME280;18343;50.152;8.182;2023-04-27T01:04:13;97602.13;;;5.36;64.24
31771;BME280;18343;50.152;8.182;2023-04-27T01:06:58;97603.25;;;5.34;64.50
31771;BME280;18343;50.152;8.182;2023-04-27T01:09:44;97608.06;;;5.30;64.46
31771;BME280;18343;50.152;8.182;2023-04-27T01:12:29;97607.53;;;5.27;64.64
31771;BME280;18343;50.152;8.182;2023-04-27T01:15:14;97602.34;;;5.25;64.72
31771;BME280;18343;50.152;8.182;2023-04-27T01:17:58;97600.16;;;5.21;64.95
31771;BME280;18343;50.152;8.182;2023-04-27T01:20:43;97604.50;;;5.22;65.58
31771;BME280;18343;50.152;8.182;2023-04-27T01:23:29;97612.50;;;5.22;65.39
31771;BME280;18343;50.152;8.182;2023-04-27T01:26:14;97606.31;;;5.21;65.38
31771;BME280;18343;50.152;8.182;2023-04-27T01:28:59;97606.66;;;5.18;65.51
31771;BME280;18343;50.152;8.182;2023-04-27T01:31:43;97616.63;;;5.16;65.56
31771;BME280;18343;50.152;8.182;2023-04-27T01:34:28;97619.91;;;5.10;65.85
31771;BME280;18343;50.152;8.182;2023-04-27T01:37:12;97618.16;;;5.01;65.78
31771;BME280;18343;50.152;8.182;2023-04-27T01:39:58;97625.63;;;4.97;66.02
31771;BME280;18343;50.152;8.182;2023-04-27T01:42:43;97621.75;;;4.92;66.33
31771;BME280;18343;50.152;8.182;2023-04-27T01:45:27;97617.28;;;4.92;66.68
31771;BME280;18343;50.152;8.182;2023-04-27T01:48:12;97609.44;;;4.91;66.52
31771;BME280;18343;50.152;8.182;2023-04-27T01:50:57;97618.72;;;4.87;66.76
31771;BME280;18343;50.152;8.182;2023-04-27T01:53:42;97610.41;;;4.90;67.18
31771;BME280;18343;50.152;8.182;2023-04-27T01:56:27;97605.78;;;4.92;67.03
31771;BME280;18343;50.152;8.182;2023-04-27T01:59:12;97612.94;;;4.91;67.81
31771;BME280;18343;50.152;8.182;2023-04-27T02:01:56;97615.59;;;4.91;68.05
31771;BME280;18343;50.152;8.182;2023-04-27T02:04:41;97615.50;;;4.83;67.81
31771;BME280;18343;50.152;8.182;2023-04-27T02:07:26;97620.31;;;4.80;67.68
31771;BME280;18343;50.152;8.182;2023-04-27T02:10:11;97615.56;;;4.73;68.05
31771;BME280;18343;50.152;8.182;2023-04-27T02:12:56;97627.22;;;4.72;68.50
31771;BME280;18343;50.152;8.182;2023-04-27T02:15:41;97637.56;;;4.75;68.64
31771;BME280;18343;50.152;8.182;2023-04-27T02:18:26;97634.06;;;4.75;68.99
31771;BME280;18343;50.152;8.182;2023-04-27T02:21:10;97645.41;;;4.77;69.15
31771;BME280;18343;50.152;8.182;2023-04-27T02:23:55;97638.72;;;4.73;68.91
31771;BME280;18343;50.152;8.182;2023-04-27T02:26:40;97630.03;;;4.71;69.12
31771;BME280;18343;50.152;8.182;2023-04-27T02:29:30;97633.97;;;4.67;69.00
31771;BME280;18343;50.152;8.182;2023-04-27T02:32:14;97642.31;;;4.64;69.64
31771;BME280;18343;50.152;8.182;2023-04-27T02:34:59;97638.66;;;4.65;69.95
31771;BME280;18343;50.152;8.182;2023-04-27T02:37:44;97641.31;;;4.65;70.04
31771;BME280;18343;50.152;8.182;2023-04-27T02:40:28;97641.97;;;4.67;70.31
31771;BME280;18343;50.152;8.182;2023-04-27T02:43:13;97642.81;;;4.67;70.64
31771;BME280;18343;50.152;8.182;2023-04-27T02:46:02;97629.34;;;4.69;70.44
31771;BME280;18343;50.152;8.182;2023-04-27T02:48:47;97625.34;;;4.65;71.45
31771;BME280;18343;50.152;8.182;2023-04-27T02:51:32;97629.44;;;4.59;71.15
31771;BME280;18343;50.152;8.182;2023-04-27T02:54:16;97629.19;;;4.53;71.22
31771;BME280;18343;50.152;8.182;2023-04-27T02:57:01;97625.59;;;4.44;71.43
31771;BME280;18343;50.152;8.182;2023-04-27T02:59:46;97631.06;;;4.42;71.79
31771;BME280;18343;50.152;8.182;2023-04-27T03:02:32;97625.44;;;4.46;72.17
31771;BME280;18343;50.152;8.182;2023-04-27T03:05:17;97619.13;;;4.47;72.36
31771;BME280;18343;50.152;8.182;2023-04-27T03:08:02;97619.66;;;4.50;72.57
31771;BME280;18343;50.152;8.182;2023-04-27T03:10:46;97623.03;;;4.52;72.50
31771;BME280;18343;50.152;8.182;2023-04-27T03:13:31;97629.19;;;4.53;72.70
31771;BME280;18343;50.152;8.182;2023-04-27T03:16:16;97632.69;;;4.53;72.66
31771;BME280;18343;50.152;8.182;2023-04-27T03:19:02;97629.47;;;4.50;72.89
31771;BME280;18343;50.152;8.182;2023-04-27T03:21:46;97637.31;;;4.51;73.41
31771;BME280;18343;50.152;8.182;2023-04-27T03:24:31;97630.03;;;4.53;73.52
31771;BME280;18343;50.152;8.182;2023-04-27T03:27:16;97624.25;;;4.58;74.03
31771;BME280;18343;50.152;8.182;2023-04-27T03:30:01;97616.25;;;4.58;74.00
31771;BME280;18343;50.152;8.182;2023-04-27T03:32:45;97622.56;;;4.57;73.69
31771;BME280;18343;50.152;8.182;2023-04-27T03:35:31;97608.41;;;4.56;74.20
31771;BME280;18343;50.152;8.182;2023-04-27T03:38:16;97613.75;;;4.56;74.06
31771;BME280;18343;50.152;8.182;2023-04-27T03:41:00;97616.25;;;4.58;74.14
31771;BME280;18343;50.152;8.182;2023-04-27T03:43:45;97604.78;;;4.57;74.61
31771;BME280;18343;50.152;8.182;2023-04-27T03:46:30;97605.75;;;4.56;74.42
31771;BME280;18343;50.152;8.182;2023-04-27T03:49:14;97613.91;;;4.55;74.68
31771;BME280;18343;50.152;8.182;2023-04-27T03:52:00;97613.22;;;4.53;74.53
31771;BME280;18343;50.152;8.182;2023-04-27T03:54:45;97621.19;;;4.53;74.50
31771;BME280;18343;50.152;8.182;2023-04-27T03:57:29;97625.28;;;4.47;74.97
31771;BME280;18343;50.152;8.182;2023-04-27T04:00:15;97623.31;;;4.49;75.15
31771;BME280;18343;50.152;8.182;2023-04-27T04:02:59;97631.47;;;4.48;75.20
31771;BME280;18343;50.152;8.182;2023-04-27T04:05:44;97631.75;;;4.45;75.12
31771;BME280;18343;50.152;8.182;2023-04-27T04:08:30;97632.88;;;4.42;75.42
31771;BME280;18343;50.152;8.182;2023-04-27T04:11:14;97633.03;;;4.40;75.36
31771;BME280;18343;50.152;8.182;2023-04-27T04:13:59;97633.88;;;4.41;75.87
31771;BME280;18343;50.152;8.182;2023-04-27T04:16:43;97629.38;;;4.41;75.97
31771;BME280;18343;50.152;8.182;2023-04-27T04:19:28;97633.72;;;4.42;76.25
31771;BME280;18343;50.152;8.182;2023-04-27T04:22:13;97635.41;;;4.43;76.50
31771;BME280;18343;50.152;8.182;2023-04-27T04:24:59;97634.72;;;4.41;76.21
31771;BME280;18343;50.152;8.182;2023-04-27T04:27:43;97633.88;;;4.41;76.58
31771;BME280;18343;50.152;8.182;2023-04-27T04:30:28;97619.88;;;4.39;76.28
31771;BME280;18343;50.152;8.182;2023-04-27T04:33:12;97626.34;;;4.36;76.25
31771;BME280;18343;50.152;8.182;2023-04-27T04:35:57;97638.84;;;4.36;77.02
31771;BME280;18343;50.152;8.182;2023-04-27T04:38:45;97633.94;;;4.31;76.72
31771;BME280;18343;50.152;8.182;2023-04-27T04:41:31;97633.94;;;4.31;76.93
31771;BME280;18343;50.152;8.182;2023-04-27T04:44:15;97640.56;;;4.27;76.97
31771;BME280;18343;50.152;8.182;2023-04-27T04:47:00;97643.09;;;4.19;76.64
31771;BME280;18343;50.152;8.182;2023-04-27T04:49:45;97652.06;;;4.18;77.30
31771;BME280;18343;50.152;8.182;2023-04-27T04:52:30;97648.56;;;4.18;78.06
31771;BME280;18343;50.152;8.182;2023-04-27T04:55:14;97647.44;;;4.20;78.00
31771;BME280;18343;50.152;8.182;2023-04-27T04:58:00;97637.50;;;4.22;78.16
31771;BME280;18343;50.152;8.182;2023-04-27T05:00:45;97639.16;;;4.23;78.63
31771;BME280;18343;50.152;8.182;2023-04-27T05:03:29;97649.13;;;4.21;78.96
31771;BME280;18343;50.152;8.182;2023-04-27T05:06:14;97657.41;;;4.18;78.51
31771;BME280;18343;50.152;8.182;2023-04-27T05:08:58;97665.78;;;4.23;79.25
31771;BME280;18343;50.152;8.182;2023-04-27T05:11:43;97658.19;;;4.28;79.82
31771;BME280;18343;50.152;8.182;2023-04-27T05:14:28;97663.63;;;4.36;79.99
31771;BME280;18343;50.152;8.182;2023-04-27T05:17:13;97669.31;;;4.41;80.25
31771;BME280;18343;50.152;8.182;2023-04-27T05:19:58;97669.72;;;4.47;80.47
31771;BME280;18343;50.152;8.182;2023-04-27T05:22:43;97666.31;;;4.54;81.14
31771;BME280;18343;50.152;8.182;2023-04-27T05:25:29;97663.91;;;4.61;81.23
31771;BME280;18343;50.152;8.182;2023-04-27T05:28:14;97667.78;;;4.66;81.44
31771;BME280;18343;50.152;8.182;2023-04-27T05:31:00;97666.03;;;4.75;81.43
31771;BME280;18343;50.152;8.182;2023-04-27T05:33:44;97668.78;;;4.83;81.33
31771;BME280;18343;50.152;8.182;2023-04-27T05:36:29;97670.31;;;4.86;82.11
31771;BME280;18343;50.152;8.182;2023-04-27T05:39:13;97666.81;;;4.85;81.30
31771;BME280;18343;50.152;8.182;2023-04-27T05:41:58;97669.94;;;4.81;81.54
31771;BME280;18343;50.152;8.182;2023-04-27T05:44:42;97671.91;;;4.79;82.31
31771;BME280;18343;50.152;8.182;2023-04-27T05:47:28;97674.44;;;4.80;82.60
31771;BME280;18343;50.152;8.182;2023-04-27T05:50:13;97676.50;;;4.86;82.92
31771;BME280;18343;50.152;8.182;2023-04-27T05:52:58;97675.72;;;4.94;83.05
31771;BME280;18343;50.152;8.182;2023-04-27T05:55:43;97670.91;;;4.97;83.16
31771;BME280;18343;50.152;8.182;2023-04-27T05:58:28;97675.09;;;5.00;82.94
31771;BME280;18343;50.152;8.182;2023-04-27T06:01:13;97682.34;;;5.07;83.53
31771;BME280;18343;50.152;8.182;2023-04-27T06:03:59;97678.63;;;5.18;84.40
31771;BME280;18343;50.152;8.182;2023-04-27T06:06:43;97689.88;;;5.30;84.41
31771;BME280;18343;50.152;8.182;2023-04-27T06:09:29;97698.94;;;5.37;84.58
31771;BME280;18343;50.152;8.182;2023-04-27T06:12:14;97692.63;;;5.38;84.85
31771;BME280;18343;50.152;8.182;2023-04-27T06:14:58;97695.28;;;5.38;84.54
31771;BME280;18343;50.152;8.182;2023-04-27T06:17:43;97697.44;;;5.34;84.85
31771;BME280;18343;50.152;8.182;2023-04-27T06:20:29;97709.84;;;5.43;85.49
31771;BME280;18343;50.152;8.182;2023-04-27T06:23:14;97704.09;;;5.56;85.68
31771;BME280;18343;50.152;8.182;2023-04-27T06:25:58;97704.03;;;5.66;85.79
31771;BME280;18343;50.152;8.182;2023-04-27T06:28:42;97700.72;;;5.72;86.14
31771;BME280;18343;50.152;8.182;2023-04-27T06:31:27;97694.28;;;5.83;86.73
31771;BME280;18343;50.152;8.182;2023-04-27T06:34:11;97696.06;;;5.92;86.97
31771;BME280;18343;50.152;8.182;2023-04-27T06:36:57;97702.09;;;6.02;86.80
31771;BME280;18343;50.152;8.182;2023-04-27T06:39:42;97701.31;;;6.09;87.54
31771;BME280;18343;50.152;8.182;2023-04-27T06:42:27;97704.25;;;6.24;87.94
31771;BME280;18343;50.152;8.182;2023-04-27T06:45:12;97700.44;;;6.35;88.03
31771;BME280;18343;50.152;8.182;2023-04-27T06:47:57;97713.38;;;6.48;88.42
31771;BME280;18343;50.152;8.182;2023-04-27T06:50:41;97706.91;;;6.58;88.03
31771;BME280;18343;50.152;8.182;2023-04-27T06:53:27;97710.31;;;6.76;88.62
31771;BME280;18343;50.152;8.182;2023-04-27T06:56:12;97717.22;;;6.95;88.46
31771;BME280;18343;50.152;8.182;2023-04-27T06:58:56;97714.25;;;7.14;88.57
31771;BME280;18343;50.152;8.182;2023-04-27T07:01:41;97704.59;;;7.30;88.53
31771;BME280;18343;50.152;8.182;2023-04-27T07:04:25;97703.41;;;7.48;88.45
31771;BME280;18343;50.152;8.182;2023-04-27T07:07:10;97700.25;;;7.61;88.57
31771;BME280;18343;50.152;8.182;2023-04-27T07:09:56;97700.22;;;7.77;88.46
31771;BME280;18343;50.152;8.182;2023-04-27T07:12:41;97703.91;;;7.93;89.16
31771;BME280;18343;50.152;8.182;2023-04-27T07:15:26;97711.75;;;8.10;89.63
31771;BME280;18343;50.152;8.182;2023-04-27T07:18:11;97704.31;;;8.29;89.58
31771;BME280;18343;50.152;8.182;2023-04-27T07:20:55;97705.63;;;8.49;89.95
31771;BME280;18343;50.152;8.182;2023-04-27T07:23:40;97701.38;;;8.71;90.64
31771;BME280;18343;50.152;8.182;2023-04-27T07:26:26;97698.56;;;8.95;91.06
31771;BME280;18343;50.152;8.182;2023-04-27T07:29:10;97696.56;;;9.20;90.98
31771;BME280;18343;50.152;8.182;2023-04-27T07:31:55;97689.22;;;9.37;90.13
31771;BME280;18343;50.152;8.182;2023-04-27T07:34:40;97683.94;;;9.52;90.10
31771;BME280;18343;50.152;8.182;2023-04-27T07:37:24;97684.91;;;9.73;90.43
31771;BME280;18343;50.152;8.182;2023-04-27T07:40:10;97684.09;;;9.88;89.58
31771;BME280;18343;50.152;8.182;2023-04-27T07:42:56;97672.00;;;10.06;90.32
31771;BME280;18343;50.152;8.182;2023-04-27T07:45:41;97673.63;;;10.30;90.75
31771;BME280;18343;50.152;8.182;2023-04-27T07:48:26;97662.59;;;10.55;90.08
31771;BME280;18343;50.152;8.182;2023-04-27T07:51:10;97668.59;;;10.71;88.36
31771;BME280;18343;50.152;8.182;2023-04-27T07:53:55;97671.72;;;10.75;88.58
31771;BME280;18343;50.152;8.182;2023-04-27T07:56:40;97666.59;;;10.95;87.50
31771;BME280;18343;50.152;8.182;2023-04-27T07:59:29;97668.78;;;11.06;87.37
31771;BME280;18343;50.152;8.182;2023-04-27T08:02:13;97670.28;;;11.08;86.55
31771;BME280;18343;50.152;8.182;2023-04-27T08:04:58;97662.53;;;11.20;87.22
31771;BME280;18343;50.152;8.182;2023-04-27T08:07:45;97655.09;;;11.22;86.19
31771;BME280;18343;50.152;8.182;2023-04-27T08:10:30;97663.19;;;11.43;86.97
31771;BME280;18343;50.152;8.182;2023-04-27T08:13:15;97667.72;;;11.64;85.95
31771;BME280;18343;50.152;8.182;2023-04-27T08:16:01;97664.78;;;11.80;86.22
31771;BME280;18343;50.152;8.182;2023-04-27T08:18:45;97655.66;;;12.03;86.11
31771;BME280;18343;50.152;8.182;2023-04-27T08:21:30;97658.91;;;12.26;85.31
31771;BME280;18343;50.152;8.182;2023-04-27T08:24:15;97662.69;;;12.38;83.23
31771;BME280;18343;50.152;8.182;2023-04-27T08:26:59;97661.13;;;12.50;82.83
31771;BME280;18343;50.152;8.182;2023-04-27T08:29:47;97651.66;;;12.68;82.16
31771;BME280;18343;50.152;8.182;2023-04-27T08:32:33;97656.44;;;12.72;80.62
31771;BME280;18343;50.152;8.182;2023-04-27T08:35:17;97651.91;;;12.79;79.07
31771;BME280;18343;50.152;8.182;2023-04-27T08:38:02;97646.31;;;12.81;74.08
31771;BME280;18343;50.152;8.182;2023-04-27T08:40:47;97653.41;;;12.95;78.11
31771;BME280;18343;50.152;8.182;2023-04-27T08:43:33;97655.53;;;13.13;76.58
31771;BME280;18343;50.152;8.182;2023-04-27T08:46:18;97657.69;;;13.24;76.54
31771;BME280;18343;50.152;8.182;2023-04-27T08:49:04;97655.25;;;13.36;76.46
31771;BME280;18343;50.152;8.182;2023-04-27T08:51:55;97660.63;;;13.29;73.75
31771;BME280;18343;50.152;8.182;2023-04-27T08:54:40;97662.28;;;13.43;72.46
31771;BME280;18343;50.152;8.182;2023-04-27T08:57:25;97658.56;;;13.51;72.67
31771;BME280;18343;50.152;8.182;2023-04-27T09:00:10;97654.03;;;13.65;70.81
31771;BME280;18343;50.152;8.182;2023-04-27T09:02:55;97651.31;;;13.71;70.06
31771;BME280;18343;50.152;8.182;2023-04-27T09:05:45;97649.44;;;13.78;70.39
31771;BME280;18343;50.152;8.182;2023-04-27T09:08:41;97649.03;;;13.75;69.08
31771;BME280;18343;50.152;8.182;2023-04-27T09:11:31;97645.72;;;13.79;68.01
31771;BME280;18343;50.152;8.182;2023-04-27T09:14:19;97643.00;;;13.79;67.36
31771;BME280;18343;50.152;8.182;2023-04-27T09:17:04;97647.38;;;13.61;59.98
31771;BME280;18343;50.152;8.182;2023-04-27T09:19:48;97648.56;;;13.32;64.19
31771;BME280;18343;50.152;8.182;2023-04-27T09:22:42;97642.78;;;13.74;63.97
31771;BME280;18343;50.152;8.182;2023-04-27T09:25:28;97643.41;;;13.76;62.52
31771;BME280;18343;50.152;8.182;2023-04-27T09:28:13;97634.66;;;14.14;62.33
31771;BME280;18343;50.152;8.182;2023-04-27T09:31:00;97638.19;;;14.41;62.80
31771;BME280;18343;50.152;8.182;2023-04-27T09:33:53;97635.88;;;14.44;60.82
31771;BME280;18343;50.152;8.182;2023-04-27T09:36:39;97636.72;;;14.45;60.22
31771;BME280;18343;50.152;8.182;2023-04-27T09:39:25;97640.41;;;14.57;59.77
31771;BME280;18343;50.152;8.182;2023-04-27T09:42:11;97641.44;;;14.69;59.12
31771;BME280;18343;50.152;8.182;2023-04-27T09:44:56;97633.25;;;14.82;58.15
31771;BME280;18343;50.152;8.182;2023-04-27T09:47:43;97633.81;;;14.98;58.08
31771;BME280;18343;50.152;8.182;2023-04-27T09:50:28;97617.47;;;15.11;57.11
31771;BME280;18343;50.152;8.182;2023-04-27T09:53:14;97627.84;;;15.20;56.00
31771;BME280;18343;50.152;8.182;2023-04-27T09:56:25;97623.22;;;15.28;56.12
31771;BME280;18343;50.152;8.182;2023-04-27T09:59:38;97624.00;;;15.35;55.95
31771;BME280;18343;50.152;8.182;2023-04-27T10:02:27;97622.72;;;15.37;56.32
31771;BME280;18343;50.152;8.182;2023-04-27T10:08:48;97616.00;;;15.78;54.88
31771;BME280;18343;50.152;8.182;2023-04-27T10:11:37;97621.03;;;15.99;54.08
31771;BME280;18343;50.152;8.182;2023-04-27T10:14:23;97618.06;;;16.07;53.27
31771;BME280;18343;50.152;8.182;2023-04-27T10:17:10;97608.91;;;16.02;51.58
31771;BME280;18343;50.152;8.182;2023-04-27T10:19:57;97615.94;;;16.09;51.54
31771;BME280;18343;50.152;8.182;2023-04-27T10:22:44;97616.34;;;16.13;50.81
31771;BME280;18343;50.152;8.182;2023-04-27T10:25:38;97608.72;;;16.21;50.07
31771;BME280;18343;50.152;8.182;2023-04-27T10:28:24;97599.53;;;16.22;48.82
31771;BME280;18343;50.152;8.182;2023-04-27T10:31:09;97602.34;;;16.34;49.79
31771;BME280;18343;50.152;8.182;2023-04-27T10:34:05;97610.06;;;16.12;47.49
31771;BME280;18343;50.152;8.182;2023-04-27T10:37:04;97604.13;;;16.22;46.98
31771;BME280;18343;50.152;8.182;2023-04-27T10:39:49;97609.72;;;16.27;47.24
31771;BME280;18343;50.152;8.182;2023-04-27T10:42:33;97615.16;;;16.02;45.30
31771;BME280;18343;50.152;8.182;2023-04-27T10:45:28;97613.31;;;16.21;46.48
31771;BME280;18343;50.152;8.182;2023-04-27T10:48:13;97613.34;;;16.57;46.02
31771;BME280;18343;50.152;8.182;2023-04-27T10:50:58;97608.00;;;16.69;44.73
31771;BME280;18343;50.152;8.182;2023-04-27T10:53:44;97608.69;;;16.83;45.38
31771;BME280;18343;50.152;8.182;2023-04-27T10:56:28;97602.59;;;16.99;45.13
31771;BME280;18343;50.152;8.182;2023-04-27T10:59:16;97604.38;;;16.75;44.22
31771;BME280;18343;50.152;8.182;2023-04-27T11:02:01;97597.84;;;16.65;43.35
31771;BME280;18343;50.152;8.182;2023-04-27T11:04:46;97601.63;;;16.64;42.53
31771;BME280;18343;50.152;8.182;2023-04-27T11:07:31;97603.41;;;16.70;43.04
31771;BME280;18343;50.152;8.182;2023-04-27T11:10:16;97597.28;;;16.38;42.15
31771;BME280;18343;50.152;8.182;2023-04-27T11:13:09;97592.75;;;16.32;41.61
31771;BME280;18343;50.152;8.182;2023-04-27T11:15:55;97588.22;;;16.44;42.35
31771;BME280;18343;50.152;8.182;2023-04-27T11:18:41;97592.59;;;16.27;41.01
31771;BME280;18343;50.152;8.182;2023-04-27T11:21:27;97592.97;;;16.30;41.49
31771;BME280;18343;50.152;8.182;2023-04-27T11:24:12;97594.63;;;16.49;41.58
31771;BME280;18343;50.152;8.182;2023-04-27T11:26:56;97590.78;;;16.57;41.94
31771;BME280;18343;50.152;8.182;2023-04-27T11:29:41;97584.03;;;16.66;41.46
31771;BME280;18343;50.152;8.182;2023-04-27T11:32:26;97581.59;;;16.76;41.19
31771;BME280;18343;50.152;8.182;2023-04-27T11:35:12;97583.19;;;16.84;40.98
31771;BME280;18343;50.152;8.182;2023-04-27T11:37:57;97589.81;;;16.88;41.04
31771;BME280;18343;50.152;8.182;2023-04-27T11:40:42;97573.06;;;16.91;40.94
31771;BME280;18343;50.152;8.182;2023-04-27T11:43:27;97576.00;;;16.89;40.45
31771;BME280;18343;50.152;8.182;2023-04-27T11:46:11;97578.50;;;16.91;40.39
31771;BME280;18343;50.152;8.182;2023-04-27T11:49:01;97580.03;;;16.99;40.34
31771;BME280;18343;50.152;8.182;2023-04-27T11:51:47;97579.09;;;16.93;39.99
31771;BME280;18343;50.152;8.182;2023-04-27T11:54:31;97576.97;;;16.95;40.34
31771;BME280;18343;50.152;8.182;2023-04-27T11:57:16;97570.75;;;17.06;40.60
31771;BME280;18343;50.152;8.182;2023-04-27T12:00:03;97568.78;;;17.25;40.47
31771;BME280;18343;50.152;8.182;2023-04-27T12:02:48;97568.09;;;17.18;39.68
31771;BME280;18343;50.152;8.182;2023-04-27T12:05:33;97572.00;;;16.92;39.66
31771;BME280;18343;50.152;8.182;2023-04-27T12:08:20;97567.88;;;17.01;39.44
31771;BME280;18343;50.152;8.182;2023-04-27T12:11:04;97567.50;;;16.98;39.39
31771;BME280;18343;50.152;8.182;2023-04-27T12:13:49;97555.72;;;17.04;39.43
31771;BME280;18343;50.152;8.182;2023-04-27T12:16:34;97551.63;;;17.13;39.43
31771;BME280;18343;50.152;8.182;2023-04-27T12:19:19;97566.28;;;17.12;39.10
31771;BME280;18343;50.152;8.182;2023-04-27T12:22:03;97563.44;;;17.07;38.75
31771;BME280;18343;50.152;8.182;2023-04-27T12:24:50;97559.41;;;17.09;39.27
31771;BME280;18343;50.152;8.182;2023-04-27T12:27:35;97551.44;;;17.26;39.35
31771;BME280;18343;50.152;8.182;2023-04-27T12:30:20;97553.72;;;17.41;39.27
31771;BME280;18343;50.152;8.182;2023-04-27T12:33:05;97550.41;;;17.39;39.10
31771;BME280;18343;50.152;8.182;2023-04-27T12:35:49;97554.31;;;17.01;38.51
31771;BME280;18343;50.152;8.182;2023-04-27T12:38:34;97549.16;;;17.11;39.24
31771;BME280;18343;50.152;8.182;2023-04-27T12:41:20;97543.84;;;17.16;38.81
31771;BME280;18343;50.152;8.182;2023-04-27T12:44:04;97544.34;;;17.25;38.74
31771;BME280;18343;50.152;8.182;2023-04-27T12:46:49;97541.56;;;17.43;39.15
31771;BME280;18343;50.152;8.182;2023-04-27T12:49:34;97538.72;;;17.62;38.86
31771;BME280;18343;50.152;8.182;2023-04-27T12:52:37;97532.47;;;17.61;39.01
31771;BME280;18343;50.152;8.182;2023-04-27T12:55:22;97529.84;;;17.54;38.48
31771;BME280;18343;50.152;8.182;2023-04-27T12:58:08;97524.81;;;17.70;38.52
31771;BME280;18343;50.152;8.182;2023-04-27T13:00:55;97528.84;;;17.79;38.49
31771;BME280;18343;50.152;8.182;2023-04-27T13:03:40;97534.75;;;17.87;38.50
31771;BME280;18343;50.152;8.182;2023-04-27T13:06:25;97521.50;;;17.91;38.44
31771;BME280;18343;50.152;8.182;2023-04-27T13:09:09;97527.53;;;17.93;37.90
31771;BME280;18343;50.152;8.182;2023-04-27T13:11:54;97522.94;;;17.93;38.07
31771;BME280;18343;50.152;8.182;2023-04-27T13:14:40;97513.13;;;17.92;38.07
31771;BME280;18343;50.152;8.182;2023-04-27T13:17:25;97515.94;;;18.09;38.35
31771;BME280;18343;50.152;8.182;2023-04-27T13:20:10;97518.88;;;18.19;38.11
31771;BME280;18343;50.152;8.182;2023-04-27T13:22:55;97517.94;;;18.14;37.95
31771;BME280;18343;50.152;8.182;2023-04-27T13:25:40;97519.22;;;18.23;38.02
31771;BME280;18343;50.152;8.182;2023-04-27T13:28:24;97525.38;;;18.18;38.08
31771;BME280;18343;50.152;8.182;2023-04-27T13:31:11;97516.88;;;18.15;37.91
31771;BME280;18343;50.152;8.182;2023-04-27T13:33:55;97519.59;;;18.15;37.75
31771;BME280;18343;50.152;8.182;2023-04-27T13:36:40;97512.06;;;18.05;37.78
31771;BME280;18343;50.152;8.182;2023-04-27T13:39:26;97522.56;;;17.78;37.47
31771;BME280;18343;50.152;8.182;2023-04-27T13:42:11;97519.25;;;17.88;37.68
31771;BME280;18343;50.152;8.182;2023-04-27T13:44:55;97520.56;;;17.97;38.24
31771;BME280;18343;50.152;8.182;2023-04-27T13:47:41;97505.63;;;18.23;38.21
31771;BME280;18343;50.152;8.182;2023-04-27T13:50:26;97515.44;;;18.24;37.97
31771;BME280;18343;50.152;8.182;2023-04-27T13:53:11;97519.38;;;17.81;38.47
31771;BME280;18343;50.152;8.182;2023-04-27T13:55:56;97514.66;;;17.88;37.89
31771;BME280;18343;50.152;8.182;2023-04-27T13:58:41;97521.97;;;17.88;38.23
31771;BME280;18343;50.152;8.182;2023-04-27T14:01:25;97517.47;;;17.82;38.00
31771;BME280;18343;50.152;8.182;2023-04-27T14:04:13;97528.25;;;17.88;38.06
31771;BME280;18343;50.152;8.182;2023-04-27T14:06:58;97529.19;;;17.82;37.88
31771;BME280;18343;50.152;8.182;2023-04-27T14:09:43;97527.66;;;17.75;37.98
31771;BME280;18343;50.152;8.182;2023-04-27T14:12:27;97523.53;;;17.72;38.05
31771;BME280;18343;50.152;8.182;2023-04-27T14:15:12;97524.22;;;17.79;38.36
31771;BME280;18343;50.152;8.182;2023-04-27T14:17:56;97525.59;;;17.58;37.89
31771;BME280;18343;50.152;8.182;2023-04-27T14:20:43;97518.16;;;17.54;37.67
31771;BME280;18343;50.152;8.182;2023-04-27T14:23:29;97525.72;;;17.52;37.79
31771;BME280;18343;50.152;8.182;2023-04-27T14:26:13;97525.13;;;17.50;38.06
31771;BME280;18343;50.152;8.182;2023-04-27T14:28:58;97520.03;;;17.53;38.14
31771;BME280;18343;50.152;8.182;2023-04-27T14:31:43;97524.78;;;17.58;38.11
31771;BME280;18343;50.152;8.182;2023-04-27T14:34:28;97533.88;;;17.52;38.16
31771;BME280;18343;50.152;8.182;2023-04-27T14:37:14;97516.97;;;17.50;38.56
31771;BME280;18343;50.152;8.182;2023-04-27T14:39:59;97515.31;;;17.60;38.51
31771;BME280;18343;50.152;8.182;2023-04-27T14:42:44;97517.97;;;17.67;38.21
31771;BME280;18343;50.152;8.182;2023-04-27T14:45:29;97517.44;;;17.58;38.22